Time;durP1;ratioP1;P1;durP2;ratioP2;P2;SDS_P1;SDS_P2;PMS_P1;PMS_P2;Temp;Humidity;BMP_temperature;BMP_pressure;BME280_temperature;BME280_humidity;BME280_pressure;Samples;Min_cycle;Max_cycle;Signal;HPM_P1;HPM_P2
2022/06/30 00:01:58;;;;;;;3.65;1.80;;;;;;;17.78;64.99;100723.72;6025364;28;20034;-66
2022/06/30 00:04:53;;;;;;;4.87;2.33;;;;;;;17.62;65.71;100718.63;6027153;28;20061;-66
2022/06/30 00:07:49;;;;;;;3.13;1.60;;;;;;;17.82;66.53;100722.34;6018755;28;20029;-66
2022/06/30 00:10:44;;;;;;;4.73;2.73;;;;;;;17.64;66.16;100719.25;6013708;28;20039;-67
2022/06/30 00:13:41;;;;;;;3.77;1.93;;;;;;;17.60;66.60;100718.00;6026298;28;20058;-66
2022/06/30 00:16:36;;;;;;;4.25;1.60;;;;;;;17.50;67.41;100709.38;6025837;28;20057;-66
2022/06/30 00:19:32;;;;;;;3.13;2.00;;;;;;;17.74;67.36;100706.38;6022118;28;20056;-66
2022/06/30 00:22:27;;;;;;;4.63;1.80;;;;;;;17.73;65.73;100696.66;6021692;28;20042;-66
2022/06/30 00:25:23;;;;;;;5.00;1.60;;;;;;;17.70;66.90;100699.72;6019448;28;20038;-67
2022/06/30 00:28:19;;;;;;;2.97;1.70;;;;;;;17.54;66.61;100683.91;6014380;28;20348;-66
2022/06/30 00:31:15;;;;;;;3.80;1.90;;;;;;;17.31;66.75;100674.34;6025468;28;20057;-66
2022/06/30 00:34:10;;;;;;;5.60;1.97;;;;;;;16.95;68.69;100695.78;6016652;28;20057;-66
2022/06/30 00:37:05;;;;;;;6.27;1.80;;;;;;;16.88;69.12;100690.34;6022621;28;20033;-67
2022/06/30 00:40:00;;;;;;;3.33;1.77;;;;;;;17.02;70.04;100683.28;6016777;28;20061;-66
2022/06/30 00:42:56;;;;;;;3.43;1.80;;;;;;;17.20;67.76;100679.16;6016060;28;20034;-67
2022/06/30 00:45:51;;;;;;;4.43;2.03;;;;;;;16.85;68.74;100679.19;6026126;28;20085;-66
2022/06/30 00:48:46;;;;;;;3.13;1.70;;;;;;;16.69;69.44;100682.88;6017479;28;20069;-67
2022/06/30 00:51:42;;;;;;;2.90;1.50;;;;;;;16.36;70.75;100685.06;6025397;28;20041;-67
2022/06/30 00:54:38;;;;;;;4.67;1.50;;;;;;;16.14;71.65;100688.69;6024261;28;20049;-66
2022/06/30 00:57:34;;;;;;;2.70;1.75;;;;;;;15.85;72.49;100669.88;6017459;28;20274;-67
2022/06/30 01:00:34;;;;;;;4.18;2.08;;;;;;;15.94;73.18;100677.66;6040373;28;20088;-66
2022/06/30 01:03:31;;;;;;;2.95;1.75;;;;;;;16.35;72.89;100694.13;6021200;28;20046;-67
2022/06/30 01:06:27;;;;;;;3.30;1.73;;;;;;;16.17;72.15;100693.63;6025046;28;20027;-66
2022/06/30 01:12:42;;;;;;;4.03;2.08;;;;;;;16.49;70.33;100690.63;6035035;28;20478;-66
2022/06/30 01:15:38;;;;;;;3.65;1.80;;;;;;;16.62;69.60;100680.13;6015817;28;20027;-66
2022/06/30 01:18:34;;;;;;;3.92;1.88;;;;;;;16.61;70.36;100699.88;6015116;28;20070;-66
2022/06/30 01:21:29;;;;;;;4.68;2.05;;;;;;;16.77;70.25;100688.13;6024388;28;20049;-66
2022/06/30 01:24:24;;;;;;;3.20;1.77;;;;;;;16.86;69.25;100678.16;6016058;28;20426;-66
2022/06/30 01:27:19;;;;;;;4.00;2.30;;;;;;;16.77;69.37;100684.66;6021386;28;20038;-66
2022/06/30 01:30:15;;;;;;;2.93;2.20;;;;;;;17.01;70.37;100681.66;6005686;28;20035;-66
2022/06/30 01:33:10;;;;;;;5.67;1.90;;;;;;;16.84;69.24;100685.56;6015334;28;20039;-66
2022/06/30 01:36:05;;;;;;;4.57;2.07;;;;;;;16.70;69.13;100675.69;6029234;28;20034;-66
2022/06/30 01:39:01;;;;;;;5.20;2.05;;;;;;;16.66;69.54;100685.94;6029106;28;20030;-66
2022/06/30 01:41:57;;;;;;;4.63;2.55;;;;;;;16.55;70.64;100679.19;6025778;28;20038;-66
2022/06/30 01:44:52;;;;;;;3.00;2.08;;;;;;;16.87;69.54;100682.50;6015588;28;20053;-66
2022/06/30 01:47:50;;;;;;;4.97;2.20;;;;;;;16.72;69.66;100674.47;6029736;28;20034;-66
2022/06/30 01:50:46;;;;;;;4.75;2.00;;;;;;;16.89;68.67;100681.28;6029135;28;20027;-66
2022/06/30 01:53:41;;;;;;;3.25;1.80;;;;;;;16.72;69.06;100681.66;6026525;28;20081;-67
2022/06/30 01:56:37;;;;;;;3.40;1.90;;;;;;;16.60;69.33;100674.09;6026766;28;20038;-66
2022/06/30 01:59:32;;;;;;;3.08;1.90;;;;;;;16.44;70.17;100678.81;6019190;28;20026;-66
2022/06/30 02:02:28;;;;;;;2.97;1.97;;;;;;;16.31;70.37;100675.94;6016549;28;20470;-66
2022/06/30 02:05:23;;;;;;;5.05;2.25;;;;;;;16.33;71.00;100674.75;6029464;28;20033;-66
2022/06/30 02:08:19;;;;;;;3.05;2.00;;;;;;;16.45;70.32;100662.56;6022510;28;20117;-66
2022/06/30 02:11:14;;;;;;;3.13;2.10;;;;;;;16.45;69.78;100661.72;6018833;28;20038;-66
2022/06/30 02:14:10;;;;;;;3.10;1.93;;;;;;;16.32;69.95;100665.06;6028895;28;20485;-66
2022/06/30 02:17:05;;;;;;;4.82;2.17;;;;;;;16.27;70.42;100659.44;6024713;28;20069;-66
2022/06/30 02:20:00;;;;;;;4.27;2.30;;;;;;;16.16;70.81;100662.56;6020957;28;20116;-66
2022/06/30 02:22:58;;;;;;;3.60;2.85;;;;;;;16.06;71.66;100664.69;6028293;28;20328;-66
2022/06/30 02:25:53;;;;;;;3.75;2.50;;;;;;;16.16;71.14;100667.91;6029030;28;20034;-66
2022/06/30 02:28:48;;;;;;;5.77;2.57;;;;;;;15.84;71.57;100654.84;6021667;28;20121;-66
2022/06/30 02:31:43;;;;;;;3.67;2.33;;;;;;;15.84;72.50;100657.53;6020948;28;20446;-66
2022/06/30 02:34:39;;;;;;;6.17;2.40;;;;;;;15.76;72.41;100646.91;6024475;28;20057;-65
2022/06/30 02:37:34;;;;;;;5.63;2.30;;;;;;;15.68;72.74;100641.63;6024704;28;20277;-66
2022/06/30 02:40:30;;;;;;;5.33;2.40;;;;;;;15.69;72.75;100641.44;6039859;28;20042;-65
2022/06/30 02:43:25;;;;;;;3.70;2.22;;;;;;;15.81;72.74;100652.53;6029007;28;20031;-66
2022/06/30 02:46:20;;;;;;;4.90;2.38;;;;;;;15.75;72.43;100642.56;6024233;28;20041;-66
2022/06/30 02:49:19;;;;;;;5.33;2.43;;;;;;;15.74;72.52;100646.25;6026386;28;20505;-66
2022/06/30 02:52:14;;;;;;;5.07;2.20;;;;;;;15.63;73.13;100633.31;6027317;28;20030;-67
2022/06/30 02:55:10;;;;;;;6.83;2.43;;;;;;;15.75;73.26;100647.91;6028449;28;20112;-66
2022/06/30 02:58:05;;;;;;;3.90;2.10;;;;;;;15.79;72.55;100643.88;6027000;28;20038;-67
2022/06/30 03:01:00;;;;;;;5.17;2.30;;;;;;;15.68;72.95;100639.78;6026996;28;20367;-66
2022/06/30 03:03:55;;;;;;;7.40;3.53;;;;;;;15.63;73.42;100649.34;6017378;28;20066;-66
2022/06/30 03:06:51;;;;;;;8.97;3.60;;;;;;;15.58;73.11;100641.03;6023016;28;20065;-66
2022/06/30 03:09:46;;;;;;;9.40;3.10;;;;;;;15.64;73.17;100637.66;6026789;28;20863;-66
2022/06/30 03:12:41;;;;;;;6.47;2.80;;;;;;;15.71;72.65;100641.28;6026712;28;20277;-66
2022/06/30 03:15:37;;;;;;;5.68;3.15;;;;;;;15.76;73.68;100649.59;6022878;28;20286;-66
2022/06/30 03:18:32;;;;;;;10.27;3.13;;;;;;;15.76;72.85;100644.25;6013038;28;20030;-66
2022/06/30 03:21:27;;;;;;;4.23;2.70;;;;;;;15.87;72.20;100643.81;6025448;28;20058;-66
2022/06/30 03:24:23;;;;;;;5.40;2.73;;;;;;;15.90;72.61;100646.09;6012202;28;20505;-66
2022/06/30 03:27:18;;;;;;;8.63;3.17;;;;;;;16.11;71.21;100638.19;6012461;28;20034;-66
2022/06/30 03:30:14;;;;;;;5.03;2.78;;;;;;;16.10;71.45;100639.19;6018349;28;20038;-66
2022/06/30 03:33:09;;;;;;;3.97;2.27;;;;;;;16.08;71.54;100643.91;6027040;28;20502;-66
2022/06/30 03:36:05;;;;;;;6.43;2.50;;;;;;;16.28;70.50;100642.34;6023145;28;20030;-66
2022/06/30 03:39:00;;;;;;;4.97;2.47;;;;;;;16.18;70.96;100641.78;6024306;28;20026;-66
2022/06/30 03:41:55;;;;;;;5.60;2.43;;;;;;;16.02;71.51;100639.28;6020613;28;20051;-66
2022/06/30 03:44:51;;;;;;;4.40;2.50;;;;;;;16.14;71.56;100643.19;6025735;28;20110;-66
2022/06/30 03:47:46;;;;;;;5.50;2.90;;;;;;;16.05;71.10;100633.59;6026594;28;20478;-67
2022/06/30 03:50:41;;;;;;;7.87;2.60;;;;;;;16.04;70.73;100631.91;6025915;28;20042;-66
2022/06/30 03:53:37;;;;;;;5.47;2.70;;;;;;;16.01;71.75;100627.75;6024514;28;20046;-66
2022/06/30 03:56:33;;;;;;;4.97;3.03;;;;;;;16.08;71.03;100638.56;6024189;28;20033;-66
2022/06/30 03:59:28;;;;;;;4.70;2.70;;;;;;;15.97;71.65;100633.66;6021473;28;20474;-66
2022/06/30 04:02:23;;;;;;;5.47;2.27;;;;;;;16.13;71.34;100628.13;6013882;28;20066;-66
2022/06/30 04:05:19;;;;;;;4.00;2.53;;;;;;;16.23;70.79;100636.72;6024465;28;20041;-66
2022/06/30 04:08:14;;;;;;;5.07;2.47;;;;;;;16.21;71.33;100627.22;6026070;28;20049;-66
2022/06/30 04:11:09;;;;;;;3.60;2.37;;;;;;;16.16;71.31;100630.44;6015136;28;20288;-66
2022/06/30 04:14:05;;;;;;;3.23;2.13;;;;;;;16.18;70.86;100630.25;6026288;28;20033;-67
2022/06/30 04:17:00;;;;;;;6.68;2.60;;;;;;;16.08;71.05;100626.03;6023866;28;20038;-66
2022/06/30 04:19:56;;;;;;;4.57;2.22;;;;;;;15.93;71.92;100635.03;6021388;28;20458;-66
2022/06/30 04:22:52;;;;;;;6.27;2.20;;;;;;;15.93;71.92;100633.19;6033661;28;20038;-66
2022/06/30 04:25:47;;;;;;;5.55;2.60;;;;;;;15.97;71.58;100631.00;6016706;28;20699;-66
2022/06/30 04:28:42;;;;;;;3.60;2.27;;;;;;;16.12;71.66;100644.34;6023381;28;20034;-66
2022/06/30 04:34:51;;;;;;;3.90;2.45;;;;;;;16.34;70.79;100636.25;6022799;28;20031;-65
2022/06/30 04:37:47;;;;;;;3.97;2.60;;;;;;;16.41;70.32;100636.34;6022118;28;20038;-65
2022/06/30 04:43:57;;;;;;;6.38;2.70;;;;;;;16.65;69.59;100628.88;6025435;28;20035;-65
2022/06/30 04:46:53;;;;;;;5.45;2.55;;;;;;;16.80;69.56;100636.03;6025575;28;20481;-66
2022/06/30 04:49:48;;;;;;;3.60;2.27;;;;;;;17.04;68.87;100625.81;6031290;28;20078;-66
2022/06/30 04:52:43;;;;;;;5.50;2.20;;;;;;;17.31;67.69;100636.81;6019715;28;20030;-66
2022/06/30 04:55:39;;;;;;;3.90;2.30;;;;;;;17.53;67.15;100638.47;6019655;28;20144;-65
2022/06/30 04:58:35;;;;;;;5.93;2.80;;;;;;;17.49;66.91;100646.06;6015527;28;20053;-66
2022/06/30 05:01:30;;;;;;;4.32;2.45;;;;;;;18.37;64.51;100634.78;6019902;28;20121;-66
2022/06/30 05:04:25;;;;;;;5.73;2.37;;;;;;;18.74;63.01;100634.38;6022983;28;20041;-66
2022/06/30 05:07:21;;;;;;;10.13;2.70;;;;;;;18.95;62.18;100644.97;6030510;28;20102;-65
2022/06/30 05:10:16;;;;;;;3.78;2.03;;;;;;;19.19;61.43;100635.50;6030076;28;20034;-66
2022/06/30 05:13:11;;;;;;;4.20;2.77;;;;;;;19.26;61.15;100640.91;6030717;28;20034;-66
2022/06/30 05:16:07;;;;;;;7.27;2.60;;;;;;;19.35;61.31;100645.09;6030787;28;20265;-66
2022/06/30 05:19:02;;;;;;;6.47;2.70;;;;;;;20.06;59.34;100646.97;6030277;28;20282;-67
2022/06/30 05:21:58;;;;;;;7.67;2.93;;;;;;;20.26;57.98;100648.81;6028461;28;20486;-66
2022/06/30 05:28:08;;;;;;;6.35;2.50;;;;;;;19.67;60.83;100638.09;6024078;28;20030;-66
2022/06/30 05:31:04;;;;;;;3.90;2.50;;;;;;;20.29;59.20;100641.16;6029880;28;20046;-65
2022/06/30 05:33:59;;;;;;;6.18;2.63;;;;;;;20.94;57.03;100620.38;6023964;28;20273;-66
2022/06/30 05:36:54;;;;;;;7.00;2.90;;;;;;;20.70;58.02;100624.66;6028039;28;20045;-65
2022/06/30 05:39:51;;;;;;;8.23;3.03;;;;;;;20.99;57.66;100620.56;6029174;28;20470;-66
2022/06/30 05:42:46;;;;;;;5.20;3.13;;;;;;;20.10;60.02;100629.38;6020014;28;20286;-65
2022/06/30 05:45:42;;;;;;;4.90;3.00;;;;;;;20.53;59.05;100618.06;6029964;28;20046;-66
2022/06/30 05:48:37;;;;;;;6.97;2.90;;;;;;;20.98;58.23;100622.41;6035064;28;20033;-66
2022/06/30 05:51:32;;;;;;;6.77;3.00;;;;;;;21.17;58.08;100621.50;6035132;28;20042;-66
2022/06/30 05:54:28;;;;;;;5.72;3.05;;;;;;;21.95;55.40;100630.09;6029795;28;20048;-66
2022/06/30 05:57:23;;;;;;;7.83;3.10;;;;;;;22.32;54.13;100618.25;6029549;28;20038;-65
2022/06/30 06:00:19;;;;;;;6.10;2.97;;;;;;;22.00;55.84;100626.72;6024413;28;20073;-66
2022/06/30 06:03:15;;;;;;;8.40;2.88;;;;;;;22.41;55.76;100627.72;6033515;28;20093;-66
2022/06/30 06:06:10;;;;;;;6.40;3.40;;;;;;;22.51;55.82;100635.31;6026078;28;20030;-66
2022/06/30 06:09:05;;;;;;;7.97;3.40;;;;;;;23.27;53.34;100624.75;6029396;28;20745;-65
2022/06/30 06:12:01;;;;;;;5.60;3.70;;;;;;;22.70;55.05;100636.13;6029092;28;20752;-66
2022/06/30 06:14:56;;;;;;;4.40;2.90;;;;;;;22.22;57.55;100636.03;6029305;28;20026;-66
2022/06/30 06:17:51;;;;;;;5.20;3.70;;;;;;;23.17;53.88;100643.44;6025741;28;20042;-66
2022/06/30 06:20:47;;;;;;;5.13;3.90;;;;;;;21.73;58.28;100642.28;6027118;28;20084;-66
2022/06/30 06:23:42;;;;;;;6.43;4.60;;;;;;;21.49;60.30;100651.19;6029056;28;20541;-66
2022/06/30 06:26:37;;;;;;;7.03;4.22;;;;;;;21.90;59.62;100654.22;6029133;28;20045;-66
2022/06/30 06:29:33;;;;;;;6.80;4.57;;;;;;;22.17;57.78;100644.84;6028704;28;20034;-66
2022/06/30 06:32:28;;;;;;;7.60;5.07;;;;;;;21.43;60.71;100643.97;6028060;28;20678;-66
2022/06/30 06:35:24;;;;;;;8.68;4.68;;;;;;;21.53;60.74;100641.59;6029088;28;20117;-66
2022/06/30 06:38:19;;;;;;;10.67;4.40;;;;;;;21.69;60.55;100651.88;6028725;28;20041;-65
2022/06/30 06:41:15;;;;;;;6.90;4.23;;;;;;;21.46;61.09;100641.69;6028351;28;20763;-67
2022/06/30 06:44:11;;;;;;;6.85;4.53;;;;;;;22.65;58.31;100646.81;6028659;28;20093;-66
2022/06/30 06:47:07;;;;;;;10.52;4.45;;;;;;;23.12;56.88;100643.28;6024166;28;20073;-66
2022/06/30 06:50:03;;;;;;;8.43;4.45;;;;;;;23.49;55.26;100634.00;6028334;28;20034;-66
2022/06/30 06:52:58;;;;;;;9.77;4.65;;;;;;;22.78;58.13;100643.94;6028161;28;20086;-66
2022/06/30 06:55:53;;;;;;;8.63;5.60;;;;;;;22.83;57.63;100633.28;6028662;28;20034;-66
2022/06/30 06:58:49;;;;;;;8.40;5.03;;;;;;;22.96;57.75;100638.53;6027479;28;20282;-66
2022/06/30 07:01:44;;;;;;;9.17;5.30;;;;;;;23.65;55.40;100622.50;6018186;28;20030;-65
2022/06/30 07:04:39;;;;;;;6.63;4.67;;;;;;;23.44;56.00;100625.78;6028408;28;20022;-66
2022/06/30 07:07:36;;;;;;;11.77;6.25;;;;;;;23.13;57.63;100628.69;6028113;28;20275;-66
2022/06/30 07:10:31;;;;;;;8.05;4.43;;;;;;;24.46;53.95;100618.97;6027787;28;20030;-65
2022/06/30 07:13:27;;;;;;;11.77;5.60;;;;;;;24.67;53.95;100618.34;6018987;28;20042;-67
2022/06/30 07:16:22;;;;;;;8.90;5.28;;;;;;;24.40;54.37;100619.09;6014254;28;20056;-66
2022/06/30 07:19:18;;;;;;;10.57;6.30;;;;;;;23.55;56.52;100613.31;6028068;28;20030;-66
2022/06/30 07:22:13;;;;;;;10.32;6.15;;;;;;;23.47;57.88;100619.91;6025016;28;20034;-66
2022/06/30 07:25:09;;;;;;;8.85;6.30;;;;;;;23.75;57.00;100615.69;6028090;28;20061;-65
2022/06/30 07:28:04;;;;;;;8.27;5.28;;;;;;;24.13;56.11;100618.78;6027054;28;20045;-66
2022/06/30 07:30:59;;;;;;;9.43;5.82;;;;;;;23.58;57.16;100597.44;6026852;28;20030;-66
2022/06/30 07:33:55;;;;;;;9.00;5.33;;;;;;;23.74;57.79;100608.63;6027808;28;20065;-66
2022/06/30 07:36:50;;;;;;;9.87;6.07;;;;;;;23.93;56.84;100615.56;6027512;28;20504;-66
2022/06/30 07:39:45;;;;;;;7.65;5.35;;;;;;;24.57;54.21;100603.75;6026681;28;20034;-66
2022/06/30 07:42:42;;;;;;;9.57;5.50;;;;;;;24.56;55.83;100602.91;6026811;28;20042;-66
2022/06/30 07:45:37;;;;;;;11.77;5.93;;;;;;;24.36;55.21;100602.47;6027537;28;20026;-66
2022/06/30 07:48:32;;;;;;;7.83;5.33;;;;;;;24.55;55.08;100595.84;6027425;28;20494;-66
2022/06/30 07:51:27;;;;;;;11.27;5.73;;;;;;;24.97;54.82;100603.75;6026436;28;20679;-66
2022/06/30 07:54:23;;;;;;;12.30;5.80;;;;;;;25.34;53.49;100597.63;6026258;28;20026;-66
2022/06/30 07:57:19;;;;;;;7.90;5.30;;;;;;;24.92;54.56;100590.09;6027159;28;20065;-66
2022/06/30 08:00:15;;;;;;;11.65;6.57;;;;;;;24.68;55.39;100583.88;6026735;28;20034;-66
2022/06/30 08:03:11;;;;;;;9.23;6.05;;;;;;;24.44;55.95;100577.72;6027063;28;20038;-66
2022/06/30 08:06:06;;;;;;;10.57;5.47;;;;;;;25.04;55.36;100583.53;6026261;28;20038;-66
2022/06/30 08:09:01;;;;;;;9.23;6.00;;;;;;;24.61;56.04;100556.91;6013839;28;20058;-66
2022/06/30 08:11:57;;;;;;;10.05;6.00;;;;;;;25.19;54.69;100563.97;6026181;28;20038;-66
2022/06/30 08:14:52;;;;;;;9.52;5.72;;;;;;;25.71;54.00;100568.09;6026875;28;20046;-65
2022/06/30 08:17:48;;;;;;;9.27;5.47;;;;;;;25.73;53.56;100574.13;6026469;28;20049;-66
2022/06/30 08:20:43;;;;;;;10.90;6.03;;;;;;;26.22;51.94;100568.88;6025940;28;20031;-66
2022/06/30 08:23:40;;;;;;;8.33;5.40;;;;;;;26.31;52.24;100562.72;6024505;28;20077;-66
2022/06/30 08:26:35;;;;;;;8.63;6.13;;;;;;;26.11;52.54;100561.63;6026235;28;20254;-66
2022/06/30 08:29:33;;;;;;;9.87;6.60;;;;;;;26.10;53.11;100566.22;6026708;28;20037;-66
2022/06/30 08:32:29;;;;;;;11.43;6.38;;;;;;;26.05;53.17;100552.56;6025772;28;20030;-67
2022/06/30 08:35:24;;;;;;;11.45;6.68;;;;;;;26.12;52.72;100566.00;6025737;28;20474;-67
2022/06/30 08:38:21;;;;;;;8.73;5.78;;;;;;;25.82;54.79;100553.59;6026148;28;20097;-66
2022/06/30 08:44:36;;;;;;;11.65;6.68;;;;;;;25.99;53.81;100548.97;6014419;28;20050;-66
2022/06/30 08:47:31;;;;;;;10.43;6.30;;;;;;;25.89;54.50;100553.44;6026166;28;20461;-66
2022/06/30 08:50:26;;;;;;;10.52;6.35;;;;;;;26.20;53.12;100554.72;6022512;28;20027;-66
2022/06/30 08:53:23;;;;;;;9.38;6.75;;;;;;;25.85;53.78;100547.66;6023888;28;20030;-66
2022/06/30 08:56:19;;;;;;;14.30;7.60;;;;;;;25.75;54.65;100552.97;6028556;28;20124;-66
2022/06/30 08:59:15;;;;;;;11.55;7.30;;;;;;;25.95;54.34;100542.38;6014850;28;20030;-66
2022/06/30 09:02:10;;;;;;;13.13;7.40;;;;;;;26.16;53.60;100548.13;6023185;28;20050;-66
2022/06/30 09:05:06;;;;;;;11.10;6.90;;;;;;;26.25;53.62;100550.16;6010414;28;20030;-66
2022/06/30 09:08:01;;;;;;;16.58;7.82;;;;;;;26.49;52.12;100532.50;6022231;28;20113;-66
2022/06/30 09:10:56;;;;;;;12.60;7.03;;;;;;;27.03;51.36;100536.09;6022940;28;20031;-66
2022/06/30 09:13:52;;;;;;;9.35;6.53;;;;;;;26.97;51.50;100534.38;6025039;28;20194;-66
2022/06/30 09:16:53;;;;;;;10.70;6.23;;;;;;;26.76;52.18;100537.97;6017621;28;20030;-67
2022/06/30 09:20:01;;;;;;;12.85;7.05;;;;;;;26.87;52.43;100537.03;6016160;28;20027;-66
2022/06/30 09:22:57;;;;;;;12.88;7.68;;;;;;;27.20;51.07;100523.13;6013425;28;20039;-66
2022/06/30 09:25:54;;;;;;;9.53;7.27;;;;;;;26.94;51.88;100524.00;6017259;28;20049;-66
2022/06/30 09:28:53;;;;;;;12.82;7.18;;;;;;;26.50;53.13;100530.56;6023142;28;20438;-66
2022/06/30 09:31:49;;;;;;;10.82;7.05;;;;;;;26.35;54.11;100535.84;6013726;28;20041;-66
2022/06/30 09:34:44;;;;;;;14.33;7.10;;;;;;;26.65;53.75;100533.47;6018656;28;20666;-67
2022/06/30 09:37:41;;;;;;;13.18;7.82;;;;;;;26.94;52.82;100523.19;6025015;28;20556;-66
2022/06/30 09:41:00;;;;;;;9.57;6.70;;;;;;;27.02;52.88;100525.44;6022963;28;20425;-66
2022/06/30 09:43:54;;;;;;;9.05;6.80;;;;;;;26.72;52.55;100528.66;6012951;28;20496;-67
2022/06/30 09:47:01;;;;;;;12.23;7.40;;;;;;;26.83;52.07;100522.25;6018203;28;20049;-66
2022/06/30 09:50:01;;;;;;;9.50;7.20;;;;;;;27.37;50.73;100517.56;6024378;28;20042;-66
2022/06/30 09:53:02;;;;;;;11.63;7.72;;;;;;;27.53;51.21;100521.28;6013120;28;20041;-66
2022/06/30 09:56:12;;;;;;;10.68;7.10;;;;;;;27.38;51.69;100510.22;6018552;28;20490;-66
2022/06/30 09:59:07;;;;;;;12.75;8.00;;;;;;;26.90;52.53;100522.91;6010432;28;20034;-66
2022/06/30 10:02:06;;;;;;;10.80;7.20;;;;;;;26.69;53.41;100509.31;6026261;28;20052;-66
2022/06/30 10:05:03;;;;;;;10.55;7.78;;;;;;;27.65;51.38;100514.53;6019366;28;20573;-66
2022/06/30 10:07:59;;;;;;;12.75;7.18;;;;;;;28.25;50.22;100516.78;6029436;28;20552;-66
2022/06/30 10:10:54;;;;;;;10.30;7.45;;;;;;;28.10;49.22;100491.34;6027483;28;20074;-67
2022/06/30 10:13:50;;;;;;;12.05;7.85;;;;;;;28.29;49.08;100514.34;6044582;28;20026;-66
2022/06/30 10:16:46;;;;;;;11.30;7.40;;;;;;;27.68;50.95;100507.72;6029253;28;20492;-66
2022/06/30 10:19:42;;;;;;;11.60;6.97;;;;;;;28.13;49.54;100504.47;6044590;28;20585;-66
2022/06/30 10:22:39;;;;;;;11.85;7.43;;;;;;;28.47;48.23;100510.28;6026921;28;20499;-66
2022/06/30 10:25:35;;;;;;;9.98;6.80;;;;;;;28.55;48.85;100509.78;6028385;28;20057;-67
2022/06/30 10:28:30;;;;;;;10.50;7.82;;;;;;;27.96;49.41;100512.81;6028636;28;20100;-66
2022/06/30 10:31:40;;;;;;;13.05;7.70;;;;;;;27.91;49.44;100512.75;6028633;28;20034;-66
2022/06/30 10:34:46;;;;;;;11.30;7.35;;;;;;;28.34;48.34;100498.81;6028172;28;20034;-66
2022/06/30 10:37:49;;;;;;;10.77;7.20;;;;;;;28.89;47.19;100491.84;6027804;28;20049;-67
2022/06/30 10:41:00;;;;;;;11.68;7.03;;;;;;;28.66;47.76;100497.81;6027181;28;20100;-66
2022/06/30 10:44:04;;;;;;;9.43;6.63;;;;;;;28.78;47.89;100495.66;6027653;28;20073;-67
2022/06/30 10:47:02;;;;;;;12.50;7.97;;;;;;;28.49;47.51;100497.19;6028948;28;20478;-66
2022/06/30 10:49:59;;;;;;;9.15;6.25;;;;;;;28.84;47.05;100495.38;6028627;28;20034;-67
2022/06/30 10:52:54;;;;;;;10.65;6.20;;;;;;;28.80;45.80;100496.22;6027719;28;20117;-67
2022/06/30 10:55:49;;;;;;;7.87;5.87;;;;;;;29.17;45.25;100499.50;6027577;28;20038;-66
2022/06/30 10:59:07;;;;;;;7.80;6.28;;;;;;;29.60;45.33;100487.16;6028341;28;20285;-67
2022/06/30 11:02:08;;;;;;;10.57;6.75;;;;;;;30.09;44.04;100485.41;6027901;28;20061;-67
2022/06/30 11:05:22;;;;;;;9.57;6.63;;;;;;;29.74;43.84;100495.63;6027850;28;20038;-67
2022/06/30 11:08:36;;;;;;;8.77;6.50;;;;;;;29.91;43.92;100483.28;6027768;28;20224;-67
2022/06/30 11:11:31;;;;;;;9.95;6.18;;;;;;;30.25;43.13;100480.66;6027698;28;20493;-66
2022/06/30 11:14:27;;;;;;;12.60;7.00;;;;;;;29.68;43.95;100475.66;6028322;28;20023;-67
2022/06/30 11:17:26;;;;;;;9.63;6.40;;;;;;;28.93;44.71;100476.56;6027948;28;20045;-67
2022/06/30 11:20:21;;;;;;;10.10;5.82;;;;;;;28.86;45.01;100479.53;6027236;28;20045;-67
2022/06/30 11:23:17;;;;;;;14.10;7.40;;;;;;;28.17;47.75;100462.75;6026650;28;20410;-66
2022/06/30 11:29:31;;;;;;;9.00;6.07;;;;;;;28.75;47.06;100457.97;6028165;28;20070;-67
2022/06/30 11:32:27;;;;;;;10.65;6.78;;;;;;;29.42;44.69;100452.22;6027445;28;20490;-67
2022/06/30 11:35:29;;;;;;;10.67;6.23;;;;;;;29.66;44.50;100453.25;6027701;28;20117;-67
2022/06/30 11:38:27;;;;;;;8.95;6.70;;;;;;;30.32;42.38;100442.88;6026716;28;20412;-67
2022/06/30 11:44:41;;;;;;;10.52;6.35;;;;;;;29.58;44.45;100442.06;6022588;28;20042;-67
2022/06/30 11:47:37;;;;;;;9.17;6.30;;;;;;;30.16;41.99;100438.59;6022631;28;20034;-67
2022/06/30 11:50:32;;;;;;;9.17;5.93;;;;;;;29.58;43.57;100431.13;6025576;28;20493;-67
2022/06/30 11:53:28;;;;;;;8.98;6.05;;;;;;;29.55;43.63;100435.25;6025422;28;20606;-67
2022/06/30 11:56:23;;;;;;;11.35;7.07;;;;;;;29.89;42.29;100432.72;6015690;28;20046;-67
2022/06/30 11:59:19;;;;;;;9.67;6.37;;;;;;;29.28;43.85;100434.75;6015188;28;20058;-67
2022/06/30 12:02:15;;;;;;;11.43;7.25;;;;;;;29.24;44.15;100439.16;6024726;28;20045;-67
2022/06/30 12:05:13;;;;;;;8.18;5.82;;;;;;;29.99;43.67;100424.44;6022675;28;20031;-67
2022/06/30 12:08:11;;;;;;;10.55;6.72;;;;;;;30.49;41.64;100437.06;6014027;28;20172;-67
2022/06/30 12:11:06;;;;;;;8.55;6.05;;;;;;;30.64;40.05;100420.50;6022521;28;20053;-67
2022/06/30 12:14:02;;;;;;;9.73;5.97;;;;;;;31.07;39.11;100432.50;6020239;28;20043;-67
2022/06/30 12:16:57;;;;;;;10.18;5.38;;;;;;;31.37;38.04;100421.25;6026949;28;20451;-67
2022/06/30 12:19:53;;;;;;;10.67;6.47;;;;;;;30.94;39.81;100417.56;6021169;28;20038;-67
2022/06/30 12:22:50;;;;;;;7.95;5.75;;;;;;;30.90;39.47;100421.13;6024051;28;20441;-67
2022/06/30 12:25:45;;;;;;;11.80;6.60;;;;;;;30.32;41.65;100420.16;6024168;28;20042;-67
2022/06/30 12:28:50;;;;;;;10.83;6.77;;;;;;;30.27;41.14;100412.00;6022793;28;20046;-67
2022/06/30 12:32:07;;;;;;;11.57;6.85;;;;;;;31.41;39.31;100397.63;6012566;28;20030;-67
2022/06/30 12:35:05;;;;;;;8.40;6.53;;;;;;;32.03;38.22;100406.78;6025025;28;20049;-67
2022/06/30 12:38:15;;;;;;;10.32;6.80;;;;;;;30.18;41.30;100411.75;6014985;28;20039;-67
2022/06/30 12:41:11;;;;;;;9.15;6.15;;;;;;;29.48;42.23;100413.69;6010349;28;20042;-67
2022/06/30 12:44:06;;;;;;;9.13;6.65;;;;;;;28.58;44.26;100405.50;6017802;28;20038;-67
2022/06/30 12:47:09;;;;;;;8.47;5.90;;;;;;;28.72;43.66;100409.38;6019150;28;20092;-68
2022/06/30 12:50:21;;;;;;;8.07;5.38;;;;;;;29.65;42.17;100398.88;6021137;28;20037;-67
2022/06/30 12:53:20;;;;;;;8.35;6.07;;;;;;;30.21;40.68;100388.47;6025345;28;20045;-67
2022/06/30 12:56:22;;;;;;;7.18;4.80;;;;;;;30.48;39.86;100375.19;6039919;28;20117;-67
2022/06/30 12:59:18;;;;;;;8.02;5.90;;;;;;;31.24;38.82;100386.28;6025164;28;20048;-67
2022/06/30 13:02:17;;;;;;;7.70;5.68;;;;;;;30.64;39.92;100387.66;6021189;28;20359;-67
2022/06/30 13:05:13;;;;;;;9.48;6.55;;;;;;;30.73;40.16;100391.41;6024748;28;20116;-67
2022/06/30 13:08:08;;;;;;;7.93;5.90;;;;;;;31.34;38.96;100388.91;6020116;28;20027;-67
2022/06/30 13:11:07;;;;;;;9.93;6.13;;;;;;;31.23;38.72;100380.00;6024851;28;20057;-67
2022/06/30 13:14:04;;;;;;;;;;;;;;;32.13;36.66;100382.75;6019584;28;20034;-66
2022/06/30 13:17:02;;;;;;;8.38;5.82;;;;;;;32.38;36.72;100379.63;6022179;28;19910;-67
2022/06/30 13:19:58;;;;;;;7.55;6.25;;;;;;;32.49;36.92;100380.28;6021032;28;20050;-67
2022/06/30 13:22:53;;;;;;;8.53;6.53;;;;;;;32.06;37.71;100373.28;6023792;28;20057;-67
2022/06/30 13:25:48;;;;;;;8.87;6.33;;;;;;;32.09;37.27;100369.94;6012709;28;20038;-67
2022/06/30 13:28:44;;;;;;;13.10;6.03;;;;;;;31.26;38.52;100362.16;6015480;28;20062;-67
2022/06/30 13:31:39;;;;;;;9.57;5.87;;;;;;;29.98;40.89;100373.56;6027819;28;20058;-67
2022/06/30 13:34:34;;;;;;;8.23;5.40;;;;;;;31.19;38.98;100368.00;6015521;28;20281;-67
2022/06/30 13:37:30;;;;;;;8.47;6.30;;;;;;;31.37;37.96;100358.19;6016003;28;20497;-67
2022/06/30 13:40:25;;;;;;;9.87;6.20;;;;;;;30.61;40.14;100372.63;6023463;28;20297;-67
2022/06/30 13:43:20;;;;;;;10.03;5.97;;;;;;;31.79;37.31;100363.72;6018626;28;20047;-67
2022/06/30 13:46:15;;;;;;;8.63;5.93;;;;;;;32.16;36.78;100356.63;6023944;28;20027;-68
2022/06/30 13:49:11;;;;;;;8.87;6.17;;;;;;;32.64;35.95;100355.34;6025199;28;20274;-67
2022/06/30 13:52:06;;;;;;;8.87;6.77;;;;;;;31.65;37.51;100353.78;6016019;28;20273;-67
2022/06/30 13:55:02;;;;;;;11.03;6.70;;;;;;;31.11;38.46;100354.94;6022585;28;20049;-67
2022/06/30 13:57:57;;;;;;;10.52;6.82;;;;;;;30.82;39.49;100350.53;6014424;28;20368;-67
2022/06/30 14:00:53;;;;;;;7.80;6.00;;;;;;;31.77;37.66;100357.69;6007831;28;20070;-67
2022/06/30 14:03:48;;;;;;;9.30;5.93;;;;;;;32.87;35.07;100354.41;6021115;28;20030;-67